Terminal Aerodrome Forecast
Issued by NWS North Platte, NE

Home | Current Version | Previous Version | Text Only | Print | Product List | Glossary On
Versions: 1 2 3 4 5 6 7 8 9 10 11 12 13
000
FTUS43 KLBF 301700
TAFLBF
TAF
KLBF 301740Z 3018/3118 05005KT P6SM SCT045 SCT250
     FM310000 VRB04KT P6SM SCT250
     FM311700 32009KT P6SM SKC=

USA.gov is the U.S. government's official web portal to all federal, state and local government web resources and services.